sensor_id;sensor_type;location;lat;lon;timestamp;pressure;altitude;pressure_sealevel;temperature;humidity
53262;BME280;39658;51.090;-1.786;2024-01-15T00:01:21;100728.72;;;1.06;100.00
53262;BME280;39658;51.090;-1.786;2024-01-15T00:03:47;100723.59;;;1.03;100.00
53262;BME280;39658;51.090;-1.786;2024-01-15T00:06:15;100720.09;;;1.04;100.00
53262;BME280;39658;51.090;-1.786;2024-01-15T00:08:42;100727.13;;;1.00;100.00
53262;BME280;39658;51.090;-1.786;2024-01-15T00:11:09;100719.41;;;0.97;100.00
53262;BME280;39658;51.090;-1.786;2024-01-15T00:13:36;100715.97;;;0.97;100.00
53262;BME280;39658;51.090;-1.786;2024-01-15T00:16:04;100717.72;;;0.95;100.00
53262;BME280;39658;51.090;-1.786;2024-01-15T00:18:30;100724.66;;;0.96;100.00
53262;BME280;39658;51.090;-1.786;2024-01-15T00:20:57;100722.94;;;0.95;100.00
53262;BME280;39658;51.090;-1.786;2024-01-15T00:23:25;100729.06;;;0.92;100.00
53262;BME280;39658;51.090;-1.786;2024-01-15T00:25:52;100725.69;;;0.88;100.00
53262;BME280;39658;51.090;-1.786;2024-01-15T00:28:19;100717.13;;;0.85;100.00
53262;BME280;39658;51.090;-1.786;2024-01-15T00:30:45;100717.16;;;0.83;100.00
53262;BME280;39658;51.090;-1.786;2024-01-15T00:33:12;100717.13;;;0.85;100.00
53262;BME280;39658;51.090;-1.786;2024-01-15T00:35:40;100715.94;;;0.98;100.00
53262;BME280;39658;51.090;-1.786;2024-01-15T00:38:07;100709.66;;;1.05;100.00
53262;BME280;39658;51.090;-1.786;2024-01-15T00:40:35;100700.91;;;1.10;100.00
53262;BME280;39658;51.090;-1.786;2024-01-15T00:43:03;100706.94;;;1.10;100.00
53262;BME280;39658;51.090;-1.786;2024-01-15T00:45:30;100702.53;;;1.14;100.00
53262;BME280;39658;51.090;-1.786;2024-01-15T00:47:57;100699.94;;;1.14;100.00
53262;BME280;39658;51.090;-1.786;2024-01-15T00:50:25;100698.22;;;1.13;100.00
53262;BME280;39658;51.090;-1.786;2024-01-15T00:52:51;100705.19;;;1.12;100.00
53262;BME280;39658;51.090;-1.786;2024-01-15T00:55:18;100694.75;;;1.14;100.00
53262;BME280;39658;51.090;-1.786;2024-01-15T00:57:46;100695.69;;;1.11;100.00
53262;BME280;39658;51.090;-1.786;2024-01-15T01:00:14;100682.78;;;1.08;100.00
53262;BME280;39658;51.090;-1.786;2024-01-15T01:02:40;100688.09;;;1.03;100.00
53262;BME280;39658;51.090;-1.786;2024-01-15T01:05:07;100687.34;;;1.00;100.00
53262;BME280;39658;51.090;-1.786;2024-01-15T01:07:34;100685.69;;;0.96;100.00
53262;BME280;39658;51.090;-1.786;2024-01-15T01:10:01;100690.19;;;0.91;100.00
53262;BME280;39658;51.090;-1.786;2024-01-15T01:12:28;100680.78;;;0.85;100.00
53262;BME280;39658;51.090;-1.786;2024-01-15T01:14:56;100686.09;;;0.80;100.00
53262;BME280;39658;51.090;-1.786;2024-01-15T01:17:25;100686.22;;;0.76;100.00
53262;BME280;39658;51.090;-1.786;2024-01-15T01:19:51;100684.47;;;0.76;100.00
53262;BME280;39658;51.090;-1.786;2024-01-15T01:22:18;100676.66;;;0.78;100.00
53262;BME280;39658;51.090;-1.786;2024-01-15T01:24:45;100681.84;;;0.78;100.00
53262;BME280;39658;51.090;-1.786;2024-01-15T01:27:12;100680.94;;;0.79;100.00
53262;BME280;39658;51.090;-1.786;2024-01-15T01:29:38;100673.22;;;0.77;100.00
53262;BME280;39658;51.090;-1.786;2024-01-15T01:32:06;100675.00;;;0.75;100.00
53262;BME280;39658;51.090;-1.786;2024-01-15T01:34:39;100671.56;;;0.75;100.00
53262;BME280;39658;51.090;-1.786;2024-01-15T01:37:07;100672.44;;;0.74;100.00
53262;BME280;39658;51.090;-1.786;2024-01-15T01:39:34;100673.25;;;0.76;100.00
53262;BME280;39658;51.090;-1.786;2024-01-15T01:42:01;100671.44;;;0.78;100.00
53262;BME280;39658;51.090;-1.786;2024-01-15T01:44:27;100669.66;;;0.81;100.00
53262;BME280;39658;51.090;-1.786;2024-01-15T01:46:54;100668.78;;;0.81;100.00
53262;BME280;39658;51.090;-1.786;2024-01-15T01:49:23;100656.66;;;0.81;100.00
53262;BME280;39658;51.090;-1.786;2024-01-15T01:51:50;100661.81;;;0.83;100.00
53262;BME280;39658;51.090;-1.786;2024-01-15T01:54:19;100662.50;;;0.89;100.00
53262;BME280;39658;51.090;-1.786;2024-01-15T01:56:47;100658.19;;;0.88;100.00
53262;BME280;39658;51.090;-1.786;2024-01-15T01:59:15;100660.88;;;0.85;100.00
53262;BME280;39658;51.090;-1.786;2024-01-15T02:01:43;100654.88;;;0.83;100.00
53262;BME280;39658;51.090;-1.786;2024-01-15T02:04:11;100652.28;;;0.83;100.00
53262;BME280;39658;51.090;-1.786;2024-01-15T02:06:39;100637.59;;;0.82;100.00
53262;BME280;39658;51.090;-1.786;2024-01-15T02:09:07;100642.75;;;0.84;100.00
53262;BME280;39658;51.090;-1.786;2024-01-15T02:11:35;100639.25;;;0.85;100.00
53262;BME280;39658;51.090;-1.786;2024-01-15T02:14:02;100634.91;;;0.85;100.00
53262;BME280;39658;51.090;-1.786;2024-01-15T02:16:28;100634.91;;;0.85;100.00
53262;BME280;39658;51.090;-1.786;2024-01-15T02:18:55;100623.69;;;0.85;100.00
53262;BME280;39658;51.090;-1.786;2024-01-15T02:21:22;100619.25;;;0.88;100.00
53262;BME280;39658;51.090;-1.786;2024-01-15T02:23:50;100612.38;;;0.87;100.00
53262;BME280;39658;51.090;-1.786;2024-01-15T02:26:17;100618.38;;;0.89;100.00
53262;BME280;39658;51.090;-1.786;2024-01-15T02:28:44;100616.63;;;0.90;100.00
53262;BME280;39658;51.090;-1.786;2024-01-15T02:31:11;100627.00;;;0.90;100.00
53262;BME280;39658;51.090;-1.786;2024-01-15T02:33:37;100620.22;;;0.86;100.00
53262;BME280;39658;51.090;-1.786;2024-01-15T02:36:05;100630.59;;;0.86;100.00
53262;BME280;39658;51.090;-1.786;2024-01-15T02:38:32;100632.31;;;0.85;100.00
53262;BME280;39658;51.090;-1.786;2024-01-15T02:41:00;100638.41;;;0.84;100.00
53262;BME280;39658;51.090;-1.786;2024-01-15T02:43:27;100626.38;;;0.82;100.00
53262;BME280;39658;51.090;-1.786;2024-01-15T02:45:54;100632.44;;;0.81;100.00
53262;BME280;39658;51.090;-1.786;2024-01-15T02:48:20;100632.47;;;0.79;100.00
53262;BME280;39658;51.090;-1.786;2024-01-15T02:50:47;100621.31;;;0.77;100.00
53262;BME280;39658;51.090;-1.786;2024-01-15T02:53:14;100614.41;;;0.76;100.00
53262;BME280;39658;51.090;-1.786;2024-01-15T02:55:40;100623.09;;;0.75;100.00
53262;BME280;39658;51.090;-1.786;2024-01-15T02:58:09;100625.69;;;0.75;100.00
53262;BME280;39658;51.090;-1.786;2024-01-15T03:00:35;100616.19;;;0.74;100.00
53262;BME280;39658;51.090;-1.786;2024-01-15T03:03:02;100623.06;;;0.77;100.00
53262;BME280;39658;51.090;-1.786;2024-01-15T03:05:29;100617.00;;;0.76;100.00
53262;BME280;39658;51.090;-1.786;2024-01-15T03:07:55;100616.16;;;0.76;100.00
53262;BME280;39658;51.090;-1.786;2024-01-15T03:10:22;100618.75;;;0.76;100.00
53262;BME280;39658;51.090;-1.786;2024-01-15T03:12:49;100612.72;;;0.75;100.00
53262;BME280;39658;51.090;-1.786;2024-01-15T03:15:17;100610.97;;;0.76;100.00
53262;BME280;39658;51.090;-1.786;2024-01-15T03:17:44;100611.91;;;0.73;100.00
53262;BME280;39658;51.090;-1.786;2024-01-15T03:20:11;100616.19;;;0.74;100.00
53262;BME280;39658;51.090;-1.786;2024-01-15T03:22:38;100617.91;;;0.75;100.00
53262;BME280;39658;51.090;-1.786;2024-01-15T03:25:06;100615.31;;;0.75;100.00
53262;BME280;39658;51.090;-1.786;2024-01-15T03:27:33;100609.22;;;0.76;100.00
53262;BME280;39658;51.090;-1.786;2024-01-15T03:30:00;100611.72;;;0.79;100.00
53262;BME280;39658;51.090;-1.786;2024-01-15T03:32:29;100609.13;;;0.79;100.00
53262;BME280;39658;51.090;-1.786;2024-01-15T03:34:55;100601.34;;;0.79;100.00
53262;BME280;39658;51.090;-1.786;2024-01-15T03:37:22;100607.41;;;0.80;100.00
53262;BME280;39658;51.090;-1.786;2024-01-15T03:39:49;100609.22;;;0.76;100.00
53262;BME280;39658;51.090;-1.786;2024-01-15T03:42:16;100604.94;;;0.75;100.00
53262;BME280;39658;51.090;-1.786;2024-01-15T03:44:42;100593.75;;;0.73;100.00
53262;BME280;39658;51.090;-1.786;2024-01-15T03:47:09;100592.03;;;0.72;100.00
53262;BME280;39658;51.090;-1.786;2024-01-15T03:49:37;100594.72;;;0.69;100.00
53262;BME280;39658;51.090;-1.786;2024-01-15T03:52:04;100599.06;;;0.68;100.00
53262;BME280;39658;51.090;-1.786;2024-01-15T03:54:31;100598.03;;;0.74;100.00
53262;BME280;39658;51.090;-1.786;2024-01-15T03:56:58;100594.50;;;0.77;100.00
53262;BME280;39658;51.090;-1.786;2024-01-15T03:59:25;100597.84;;;0.80;100.00
53262;BME280;39658;51.090;-1.786;2024-01-15T04:01:51;100588.31;;;0.81;100.00
53262;BME280;39658;51.090;-1.786;2024-01-15T04:04:18;100584.09;;;0.78;100.00
53262;BME280;39658;51.090;-1.786;2024-01-15T04:06:46;100586.69;;;0.78;100.00
53262;BME280;39658;51.090;-1.786;2024-01-15T04:09:13;100587.59;;;0.76;100.00
53262;BME280;39658;51.090;-1.786;2024-01-15T04:11:40;100586.84;;;0.72;100.00
53262;BME280;39658;51.090;-1.786;2024-01-15T04:14:07;100582.59;;;0.69;100.00
53262;BME280;39658;51.090;-1.786;2024-01-15T04:16:33;100576.59;;;0.67;100.00
53262;BME280;39658;51.090;-1.786;2024-01-15T04:19:00;100567.13;;;0.65;100.00
53262;BME280;39658;51.090;-1.786;2024-01-15T04:21:27;100564.47;;;0.68;100.00
53262;BME280;39658;51.090;-1.786;2024-01-15T04:23:55;100566.97;;;0.71;100.00
53262;BME280;39658;51.090;-1.786;2024-01-15T04:26:21;100569.44;;;0.76;100.00
53262;BME280;39658;51.090;-1.786;2024-01-15T04:28:48;100577.06;;;0.82;100.00
53262;BME280;39658;51.090;-1.786;2024-01-15T04:31:21;100570.75;;;0.91;100.00
53262;BME280;39658;51.090;-1.786;2024-01-15T04:33:48;100573.44;;;0.87;100.00
53262;BME280;39658;51.090;-1.786;2024-01-15T04:36:14;100576.78;;;0.91;100.00
53262;BME280;39658;51.090;-1.786;2024-01-15T04:38:41;100581.09;;;0.92;100.00
53262;BME280;39658;51.090;-1.786;2024-01-15T04:41:11;100570.75;;;0.91;100.00
53262;BME280;39658;51.090;-1.786;2024-01-15T04:43:38;100570.81;;;0.89;100.00
53262;BME280;39658;51.090;-1.786;2024-01-15T04:46:05;100575.09;;;0.90;100.00
53262;BME280;39658;51.090;-1.786;2024-01-15T04:48:32;100569.91;;;0.90;100.00
53262;BME280;39658;51.090;-1.786;2024-01-15T04:50:59;100559.78;;;0.81;100.00
53262;BME280;39658;51.090;-1.786;2024-01-15T04:53:26;100557.03;;;0.85;100.00
53262;BME280;39658;51.090;-1.786;2024-01-15T04:55:53;100565.78;;;0.83;100.00
53262;BME280;39658;51.090;-1.786;2024-01-15T04:58:21;100563.25;;;0.81;100.00
53262;BME280;39658;51.090;-1.786;2024-01-15T05:00:50;100567.59;;;0.79;100.00
53262;BME280;39658;51.090;-1.786;2024-01-15T05:03:17;100567.75;;;0.75;100.00
53262;BME280;39658;51.090;-1.786;2024-01-15T05:05:43;100572.19;;;0.69;100.00
53262;BME280;39658;51.090;-1.786;2024-01-15T05:08:10;100572.50;;;0.59;100.00
53262;BME280;39658;51.090;-1.786;2024-01-15T05:10:37;100572.88;;;0.45;100.00
53262;BME280;39658;51.090;-1.786;2024-01-15T05:13:04;100575.81;;;0.31;100.00
53262;BME280;39658;51.090;-1.786;2024-01-15T05:15:32;100575.38;;;0.15;100.00
53262;BME280;39658;51.090;-1.786;2024-01-15T05:17:58;100572.19;;;0.04;100.00
53262;BME280;39658;51.090;-1.786;2024-01-15T05:20:25;100567.38;;;-0.12;100.00
53262;BME280;39658;51.090;-1.786;2024-01-15T05:22:52;100569.53;;;-0.29;100.00
53262;BME280;39658;51.090;-1.786;2024-01-15T05:25:18;100563.09;;;-0.50;100.00
53262;BME280;39658;51.090;-1.786;2024-01-15T05:27:45;100577.31;;;-0.68;100.00
53262;BME280;39658;51.090;-1.786;2024-01-15T05:30:13;100575.97;;;-0.86;100.00
53262;BME280;39658;51.090;-1.786;2024-01-15T05:32:41;100579.59;;;-0.95;100.00
53262;BME280;39658;51.090;-1.786;2024-01-15T05:35:08;100587.63;;;-1.09;100.00
53262;BME280;39658;51.090;-1.786;2024-01-15T05:37:35;100591.47;;;-1.27;100.00
53262;BME280;39658;51.090;-1.786;2024-01-15T05:40:01;100612.41;;;-1.41;100.00
53262;BME280;39658;51.090;-1.786;2024-01-15T05:42:29;100625.59;;;-1.55;100.00
53262;BME280;39658;51.090;-1.786;2024-01-15T05:44:57;100634.41;;;-1.68;100.00
53262;BME280;39658;51.090;-1.786;2024-01-15T05:47:24;100631.13;;;-1.78;100.00
53262;BME280;39658;51.090;-1.786;2024-01-15T05:49:52;100637.31;;;-1.88;100.00
53262;BME280;39658;51.090;-1.786;2024-01-15T05:52:19;100646.06;;;-1.95;100.00
53262;BME280;39658;51.090;-1.786;2024-01-15T05:54:47;100646.94;;;-1.96;100.00
53262;BME280;39658;51.090;-1.786;2024-01-15T05:57:13;100656.41;;;-1.95;100.00
53262;BME280;39658;51.090;-1.786;2024-01-15T05:59:40;100659.91;;;-2.00;100.00
53262;BME280;39658;51.090;-1.786;2024-01-15T06:02:07;100667.69;;;-2.01;100.00
53262;BME280;39658;51.090;-1.786;2024-01-15T06:04:34;100665.22;;;-2.10;100.00
53262;BME280;39658;51.090;-1.786;2024-01-15T06:07:02;100667.06;;;-2.17;100.00
53262;BME280;39658;51.090;-1.786;2024-01-15T06:09:29;100666.28;;;-2.24;100.00
53262;BME280;39658;51.090;-1.786;2024-01-15T06:11:56;100674.09;;;-2.27;100.00
53262;BME280;39658;51.090;-1.786;2024-01-15T06:14:23;100679.22;;;-2.25;100.00
53262;BME280;39658;51.090;-1.786;2024-01-15T06:16:50;100687.00;;;-2.27;100.00
53262;BME280;39658;51.090;-1.786;2024-01-15T06:19:17;100691.25;;;-2.24;100.00
53262;BME280;39658;51.090;-1.786;2024-01-15T06:21:43;100692.13;;;-2.25;100.00
53262;BME280;39658;51.090;-1.786;2024-01-15T06:24:11;100697.16;;;-2.16;100.00
53262;BME280;39658;51.090;-1.786;2024-01-15T06:26:39;100692.88;;;-2.17;100.00
53262;BME280;39658;51.090;-1.786;2024-01-15T06:29:05;100693.78;;;-2.21;100.00
53262;BME280;39658;51.090;-1.786;2024-01-15T06:31:32;100685.94;;;-2.13;100.00
53262;BME280;39658;51.090;-1.786;2024-01-15T06:33:59;100691.72;;;-1.96;100.00
53262;BME280;39658;51.090;-1.786;2024-01-15T06:36:25;100695.06;;;-1.88;100.00
53262;BME280;39658;51.090;-1.786;2024-01-15T06:38:52;100690.56;;;-1.76;100.00
53262;BME280;39658;51.090;-1.786;2024-01-15T06:41:20;100690.53;;;-1.73;100.00
53262;BME280;39658;51.090;-1.786;2024-01-15T06:43:47;100692.13;;;-1.65;100.00
53262;BME280;39658;51.090;-1.786;2024-01-15T06:46:19;100686.13;;;-1.68;100.00
53262;BME280;39658;51.090;-1.786;2024-01-15T06:48:46;100674.13;;;-1.71;100.00
53262;BME280;39658;51.090;-1.786;2024-01-15T06:51:13;100678.41;;;-1.71;100.00
53262;BME280;39658;51.090;-1.786;2024-01-15T06:53:40;100669.13;;;-1.82;100.00
53262;BME280;39658;51.090;-1.786;2024-01-15T06:56:06;100667.44;;;-1.86;100.00
53262;BME280;39658;51.090;-1.786;2024-01-15T06:58:35;100666.59;;;-1.86;100.00
53262;BME280;39658;51.090;-1.786;2024-01-15T07:01:01;100669.34;;;-1.97;100.00
53262;BME280;39658;51.090;-1.786;2024-01-15T07:03:29;100668.59;;;-2.07;100.00
53262;BME280;39658;51.090;-1.786;2024-01-15T07:05:56;100664.53;;;-2.22;100.00
53262;BME280;39658;51.090;-1.786;2024-01-15T07:08:23;100664.66;;;-2.29;100.00
53262;BME280;39658;51.090;-1.786;2024-01-15T07:10:50;100672.56;;;-2.42;100.00
53262;BME280;39658;51.090;-1.786;2024-01-15T07:13:17;100664.16;;;-2.56;100.00
53262;BME280;39658;51.090;-1.786;2024-01-15T07:15:45;100666.94;;;-2.73;100.00
53262;BME280;39658;51.090;-1.786;2024-01-15T07:18:11;100679.97;;;-2.85;100.00
53262;BME280;39658;51.090;-1.786;2024-01-15T07:20:38;100678.41;;;-3.00;100.00
53262;BME280;39658;51.090;-1.786;2024-01-15T07:23:05;100685.41;;;-3.12;100.00
53262;BME280;39658;51.090;-1.786;2024-01-15T07:25:32;100686.28;;;-3.13;100.00
53262;BME280;39658;51.090;-1.786;2024-01-15T07:27:59;100696.56;;;-3.10;100.00
53262;BME280;39658;51.090;-1.786;2024-01-15T07:30:25;100710.38;;;-3.14;100.00
53262;BME280;39658;51.090;-1.786;2024-01-15T07:32:54;100700.09;;;-3.17;100.00
53262;BME280;39658;51.090;-1.786;2024-01-15T07:35:20;100704.41;;;-3.20;100.00
53262;BME280;39658;51.090;-1.786;2024-01-15T07:37:47;100702.75;;;-3.26;100.00
53262;BME280;39658;51.090;-1.786;2024-01-15T07:40:14;100706.94;;;-3.14;100.00
53262;BME280;39658;51.090;-1.786;2024-01-15T07:42:41;100717.22;;;-3.11;100.00
53262;BME280;39658;51.090;-1.786;2024-01-15T07:45:08;100719.81;;;-3.14;100.00
53262;BME280;39658;51.090;-1.786;2024-01-15T07:47:35;100713.00;;;-3.17;100.00
53262;BME280;39658;51.090;-1.786;2024-01-15T07:50:04;100710.41;;;-3.17;100.00
53262;BME280;39658;51.090;-1.786;2024-01-15T07:52:31;100717.31;;;-3.20;100.00
53262;BME280;39658;51.090;-1.786;2024-01-15T07:54:58;100725.94;;;-3.25;100.00
53262;BME280;39658;51.090;-1.786;2024-01-15T07:57:26;100725.09;;;-3.28;100.00
53262;BME280;39658;51.090;-1.786;2024-01-15T07:59:53;100722.50;;;-3.25;100.00
53262;BME280;39658;51.090;-1.786;2024-01-15T08:02:20;100727.59;;;-3.19;100.00
53262;BME280;39658;51.090;-1.786;2024-01-15T08:04:47;100722.38;;;-3.11;100.00
53262;BME280;39658;51.090;-1.786;2024-01-15T08:07:15;100739.50;;;-3.02;100.00
53262;BME280;39658;51.090;-1.786;2024-01-15T08:09:43;100737.69;;;-2.94;100.00
53262;BME280;39658;51.090;-1.786;2024-01-15T08:12:09;100739.41;;;-2.95;100.00
53262;BME280;39658;51.090;-1.786;2024-01-15T08:14:37;100735.13;;;-2.97;100.00
53262;BME280;39658;51.090;-1.786;2024-01-15T08:17:04;100740.28;;;-2.96;100.00
53262;BME280;39658;51.090;-1.786;2024-01-15T08:19:30;100743.69;;;-2.95;100.00
53262;BME280;39658;51.090;-1.786;2024-01-15T08:21:57;100753.16;;;-2.94;100.00
53262;BME280;39658;51.090;-1.786;2024-01-15T08:24:25;100755.66;;;-2.85;100.00
53262;BME280;39658;51.090;-1.786;2024-01-15T08:26:52;100767.72;;;-2.87;100.00
53262;BME280;39658;51.090;-1.786;2024-01-15T08:29:19;100768.56;;;-2.86;100.00
53262;BME280;39658;51.090;-1.786;2024-01-15T08:31:46;100768.56;;;-2.86;100.00
53262;BME280;39658;51.090;-1.786;2024-01-15T08:34:13;100769.41;;;-2.86;100.00
53262;BME280;39658;51.090;-1.786;2024-01-15T08:36:40;100766.88;;;-2.91;100.00
53262;BME280;39658;51.090;-1.786;2024-01-15T08:39:07;100761.78;;;-2.97;100.00
53262;BME280;39658;51.090;-1.786;2024-01-15T08:41:35;100765.25;;;-2.99;100.00
53262;BME280;39658;51.090;-1.786;2024-01-15T08:44:02;100759.31;;;-3.04;100.00
53262;BME280;39658;51.090;-1.786;2024-01-15T08:46:29;100764.50;;;-3.09;100.00
53262;BME280;39658;51.090;-1.786;2024-01-15T08:48:56;100764.47;;;-3.06;100.00
53262;BME280;39658;51.090;-1.786;2024-01-15T08:51:22;100763.56;;;-3.02;100.00
53262;BME280;39658;51.090;-1.786;2024-01-15T08:53:49;100775.53;;;-2.93;100.00
53262;BME280;39658;51.090;-1.786;2024-01-15T08:56:16;100768.56;;;-2.85;100.00
53262;BME280;39658;51.090;-1.786;2024-01-15T08:58:44;100786.59;;;-2.82;100.00
53262;BME280;39658;51.090;-1.786;2024-01-15T09:01:11;100781.44;;;-2.83;100.00
53262;BME280;39658;51.090;-1.786;2024-01-15T09:03:38;100782.25;;;-2.78;100.00
53262;BME280;39658;51.090;-1.786;2024-01-15T09:06:07;100782.25;;;-2.78;100.00
53262;BME280;39658;51.090;-1.786;2024-01-15T09:08:34;100777.94;;;-2.78;100.00
53262;BME280;39658;51.090;-1.786;2024-01-15T09:11:01;100774.44;;;-2.72;100.00
53262;BME280;39658;51.090;-1.786;2024-01-15T09:13:29;100776.06;;;-2.62;100.00
53262;BME280;39658;51.090;-1.786;2024-01-15T09:15:58;100771.69;;;-2.55;100.00
53262;BME280;39658;51.090;-1.786;2024-01-15T09:18:24;100769.03;;;-2.49;100.00
53262;BME280;39658;51.090;-1.786;2024-01-15T09:20:51;100774.00;;;-2.33;100.00
53262;BME280;39658;51.090;-1.786;2024-01-15T09:23:18;100773.88;;;-2.23;100.00
53262;BME280;39658;51.090;-1.786;2024-01-15T09:25:44;100771.16;;;-2.10;100.00
53262;BME280;39658;51.090;-1.786;2024-01-15T09:28:11;100768.41;;;-2.00;100.00
53262;BME280;39658;51.090;-1.786;2024-01-15T09:30:38;100770.84;;;-1.87;100.00
53262;BME280;39658;51.090;-1.786;2024-01-15T09:33:06;100765.47;;;-1.73;100.00
53262;BME280;39658;51.090;-1.786;2024-01-15T09:35:33;100764.50;;;-1.65;100.00
53262;BME280;39658;51.090;-1.786;2024-01-15T09:37:59;100758.31;;;-1.56;100.00
53262;BME280;39658;51.090;-1.786;2024-01-15T09:40:30;100757.38;;;-1.50;100.00
53262;BME280;39658;51.090;-1.786;2024-01-15T09:42:57;100745.16;;;-1.40;100.00
53262;BME280;39658;51.090;-1.786;2024-01-15T09:45:25;100736.28;;;-1.25;100.00
53262;BME280;39658;51.090;-1.786;2024-01-15T09:47:52;100733.47;;;-1.12;100.00
53262;BME280;39658;51.090;-1.786;2024-01-15T09:50:21;100727.16;;;-0.97;100.00
53262;BME280;39658;51.090;-1.786;2024-01-15T09:52:48;100731.28;;;-0.86;100.00
53262;BME280;39658;51.090;-1.786;2024-01-15T09:55:17;100727.44;;;-0.67;100.00
53262;BME280;39658;51.090;-1.786;2024-01-15T09:57:44;100718.66;;;-0.58;100.00
53262;BME280;39658;51.090;-1.786;2024-01-15T10:00:12;100721.09;;;-0.50;100.00
53262;BME280;39658;51.090;-1.786;2024-01-15T10:02:40;100726.06;;;-0.40;100.00
53262;BME280;39658;51.090;-1.786;2024-01-15T10:05:07;100725.16;;;-0.37;100.00
53262;BME280;39658;51.090;-1.786;2024-01-15T10:07:37;100726.69;;;-0.28;100.00
53262;BME280;39658;51.090;-1.786;2024-01-15T10:10:05;100712.53;;;-0.12;100.00
53262;BME280;39658;51.090;-1.786;2024-01-15T10:12:32;100720.66;;;0.10;100.00
53262;BME280;39658;51.090;-1.786;2024-01-15T10:14:59;100740.22;;;0.25;100.00
53262;BME280;39658;51.090;-1.786;2024-01-15T10:17:26;100731.28;;;0.37;100.00
53262;BME280;39658;51.090;-1.786;2024-01-15T10:19:53;100748.34;;;0.47;100.00
53262;BME280;39658;51.090;-1.786;2024-01-15T10:22:20;100783.63;;;0.55;100.00
53262;BME280;39658;51.090;-1.786;2024-01-15T10:24:48;100795.59;;;0.60;100.00
53262;BME280;39658;51.090;-1.786;2024-01-15T10:27:15;100799.69;;;0.70;100.00
53262;BME280;39658;51.090;-1.786;2024-01-15T10:29:42;100811.50;;;0.82;100.00
53262;BME280;39658;51.090;-1.786;2024-01-15T10:32:09;100809.63;;;0.89;100.00
53262;BME280;39658;51.090;-1.786;2024-01-15T10:34:37;100808.56;;;0.96;100.00
53262;BME280;39658;51.090;-1.786;2024-01-15T10:37:05;100819.47;;;1.11;100.00
53262;BME280;39658;51.090;-1.786;2024-01-15T10:39:33;100808.81;;;1.21;100.00
53262;BME280;39658;51.090;-1.786;2024-01-15T10:42:01;100811.75;;;1.42;100.00
53262;BME280;39658;51.090;-1.786;2024-01-15T10:44:28;100812.81;;;1.97;100.00
53262;BME280;39658;51.090;-1.786;2024-01-15T10:46:56;100830.53;;;4.46;100.00
53262;BME280;39658;51.090;-1.786;2024-01-15T10:49:24;100770.84;;;7.44;100.00
53262;BME280;39658;51.090;-1.786;2024-01-15T10:51:52;100696.44;;;9.02;100.00
53262;BME280;39658;51.090;-1.786;2024-01-15T10:54:20;100669.97;;;9.48;100.00
53262;BME280;39658;51.090;-1.786;2024-01-15T10:56:49;100653.66;;;10.24;100.00
53262;BME280;39658;51.090;-1.786;2024-01-15T10:59:20;100643.97;;;10.65;100.00
53262;BME280;39658;51.090;-1.786;2024-01-15T11:01:47;100639.69;;;11.53;100.00
53262;BME280;39658;51.090;-1.786;2024-01-15T11:04:15;100637.59;;;11.82;100.00
53262;BME280;39658;51.090;-1.786;2024-01-15T11:06:44;100640.25;;;12.30;100.00
53262;BME280;39658;51.090;-1.786;2024-01-15T11:09:12;100648.03;;;12.45;100.00
53262;BME280;39658;51.090;-1.786;2024-01-15T11:11:41;100652.03;;;12.26;100.00
53262;BME280;39658;51.090;-1.786;2024-01-15T11:14:08;100656.72;;;11.98;100.00
53262;BME280;39658;51.090;-1.786;2024-01-15T11:16:55;100649.72;;;12.21;100.00
53262;BME280;39658;51.090;-1.786;2024-01-15T11:19:24;100647.34;;;11.81;100.00
53262;BME280;39658;51.090;-1.786;2024-01-15T11:21:51;100647.09;;;12.21;100.00
53262;BME280;39658;51.090;-1.786;2024-01-15T11:24:36;100642.28;;;12.27;100.00
53262;BME280;39658;51.090;-1.786;2024-01-15T11:27:04;100646.06;;;11.74;100.00
53262;BME280;39658;51.090;-1.786;2024-01-15T11:29:32;100655.41;;;11.17;100.00
53262;BME280;39658;51.090;-1.786;2024-01-15T11:32:03;100649.16;;;11.05;100.00
53262;BME280;39658;51.090;-1.786;2024-01-15T11:34:56;100660.03;;;11.13;100.00
53262;BME280;39658;51.090;-1.786;2024-01-15T11:37:28;100653.66;;;11.42;100.00
53262;BME280;39658;51.090;-1.786;2024-01-15T11:39:59;100650.25;;;11.65;100.00
53262;BME280;39658;51.090;-1.786;2024-01-15T11:42:29;100649.72;;;11.97;100.00
53262;BME280;39658;51.090;-1.786;2024-01-15T11:44:56;100643.03;;;12.05;100.00
53262;BME280;39658;51.090;-1.786;2024-01-15T11:47:53;100642.78;;;11.46;100.00
53262;BME280;39658;51.090;-1.786;2024-01-15T11:50:26;100636.81;;;11.06;100.00
53262;BME280;39658;51.090;-1.786;2024-01-15T11:52:59;100627.63;;;11.61;100.00
53262;BME280;39658;51.090;-1.786;2024-01-15T11:55:28;100633.66;;;12.00;97.80
53262;BME280;39658;51.090;-1.786;2024-01-15T11:57:57;100637.38;;;11.61;96.88
53262;BME280;39658;51.090;-1.786;2024-01-15T12:00:26;100650.97;;;12.05;98.92
53262;BME280;39658;51.090;-1.786;2024-01-15T12:02:54;100638.59;;;12.87;98.17
53262;BME280;39658;51.090;-1.786;2024-01-15T12:05:22;100644.59;;;12.67;95.05
53262;BME280;39658;51.090;-1.786;2024-01-15T12:07:50;100646.66;;;11.91;96.50
53262;BME280;39658;51.090;-1.786;2024-01-15T12:10:18;100655.63;;;10.35;99.67
53262;BME280;39658;51.090;-1.786;2024-01-15T12:12:58;100656.47;;;11.02;99.61
53262;BME280;39658;51.090;-1.786;2024-01-15T12:15:27;100653.69;;;11.29;96.88
53262;BME280;39658;51.090;-1.786;2024-01-15T12:17:57;100659.59;;;10.81;96.72
53262;BME280;39658;51.090;-1.786;2024-01-15T12:20:24;100661.56;;;10.24;96.42
53262;BME280;39658;51.090;-1.786;2024-01-15T12:22:51;100661.19;;;10.31;96.95
53262;BME280;39658;51.090;-1.786;2024-01-15T12:25:18;100663.16;;;10.00;99.09
53262;BME280;39658;51.090;-1.786;2024-01-15T12:27:45;100664.69;;;9.33;100.00
53262;BME280;39658;51.090;-1.786;2024-01-15T12:30:13;100656.78;;;8.30;100.00
53262;BME280;39658;51.090;-1.786;2024-01-15T12:32:40;100660.94;;;8.03;100.00
53262;BME280;39658;51.090;-1.786;2024-01-15T12:35:10;100670.94;;;7.31;100.00
53262;BME280;39658;51.090;-1.786;2024-01-15T12:37:37;100659.94;;;7.25;100.00